Airfield :
LOGIN :

Register | Disclaimer

   EN    FR    IT 

 










Legend :    VFR   Marginal VFR   IFR   Intensive IFR   Very Intensive IFR
Visi :
Ceiling :
>= 8 km
>= 3000ft
5 to 8 km
1000 to 3000 ft
1500m to 5 km
500 to 1000 ft
800 to 1500m
200 to 500 ft
< 800m
< 200 ft
Symbols :   Thunderstorms  Fog  Heavy snow  Heavy precipitations  Wind > 20 kt
SIGMETs :     Misc.  Thunderstorms  Icing  Turbulence  Mountain Waves  Volcanic Ashes







- Airport Elevation : 2776 ft
- IATA code : VLL


LEVD - Valladolid

CURRENT METAR :
  • 231400Z 07005KT 010V150 CAVOK 28/12 Q1020

EXPIRED METARs :
  • 231330Z 06005KT 010V090 CAVOK 27/13 Q1020
  • 231300Z 07006KT 040V110 CAVOK 27/13 Q1020
  • 231230Z 06007KT 020V100 CAVOK 27/13 Q1021
  • 231200Z 07007KT 030V100 CAVOK 26/11 Q1021
  • 231130Z 05006KT 020V100 CAVOK 25/14 Q1021

TAF COR TAF LEVD
Valid from the 23 at 12:00 until the 24 at 12:00 UTC


231135Z 2312/2412 VRB05KT CAVOK TX32/2316Z TN17/2405Z
TEMPO 2314/2320 18015G25KT FEW045TCU
PROB30
TEMPO 2314/2319 VRB20G35KT TS SHRA SCT040CB
TEMPO 2320/2404 06010KT
No reported NOTAMs for that airfield.



MET'MAP, your aeronautical weather chart ! - Copyright ORBIFLY December 2007 - Disclaimer

ORBIFLY MET'MAP TEAM :

Programming & Development : Alexandra Zaïnal
Concept & Development : Baudouin d'Aumeries
Co-Development & Prog : Marc-Olivier Méhu
Technical & hardware support : Manuel Goepfert

Contact : metmap@orbifly.com




SOURCES & CREDITS :

   NOAA